createdAt,value
2022-09-25T00:02:05.212Z,15.34
2022-09-25T00:04:34.456Z,14.67
2022-09-25T00:07:03.387Z,14.90
2022-09-25T00:09:32.248Z,14.76
2022-09-25T00:12:01.615Z,14.04
2022-09-25T00:14:30.712Z,14.22
2022-09-25T00:16:57.408Z,15.14
2022-09-25T00:19:42.707Z,14.97
2022-09-25T00:22:12.066Z,13.78
2022-09-25T00:24:38.819Z,14.97
2022-09-25T00:27:08.539Z,14.51
2022-09-25T00:29:39.527Z,15.14
2022-09-25T00:32:08.330Z,15.10
2022-09-25T00:34:35.178Z,14.40
2022-09-25T00:37:01.971Z,14.58
2022-09-25T00:39:31.702Z,15.10
2022-09-25T00:42:00.694Z,14.35
2022-09-25T00:45:03.978Z,15.05
2022-09-25T00:47:51.897Z,15.09
2022-09-25T00:50:37.125Z,15.13
2022-09-25T00:53:11.699Z,15.15
2022-09-25T00:55:38.721Z,15.06
2022-09-25T00:58:06.825Z,14.28
2022-09-25T01:00:36.025Z,15.11
2022-09-25T01:03:02.860Z,15.22
2022-09-25T01:05:34.133Z,14.99
2022-09-25T01:08:02.341Z,15.10
2022-09-25T01:10:29.378Z,14.17
2022-09-25T01:12:56.684Z,14.30
2022-09-25T01:15:32.456Z,14.67
2022-09-25T01:18:36.734Z,15.25
2022-09-25T01:21:32.501Z,15.25
2022-09-25T01:24:08.119Z,15.20
2022-09-25T01:26:44.205Z,15.23
2022-09-25T01:29:25.534Z,15.17
2022-09-25T01:31:55.184Z,15.09
2022-09-25T01:34:28.599Z,15.09
2022-09-25T01:37:04.270Z,13.81
2022-09-25T01:39:45.626Z,14.86
2022-09-25T01:42:44.787Z,14.63
2022-09-25T01:45:16.077Z,15.20
2022-09-25T01:47:48.993Z,15.26
2022-09-25T01:50:32.837Z,15.04
2022-09-25T01:53:08.224Z,14.00
2022-09-25T01:55:40.996Z,14.34
2022-09-25T01:58:30.826Z,13.38
2022-09-25T02:01:10.536Z,15.26
2022-09-25T02:03:45.801Z,15.27
2022-09-25T02:06:19.788Z,15.25
2022-09-25T02:08:52.598Z,15.19
2022-09-25T02:11:19.805Z,15.14
2022-09-25T02:13:56.650Z,15.04
2022-09-25T02:16:29.210Z,15.11
2022-09-25T02:19:18.209Z,15.08
2022-09-25T02:21:50.246Z,15.03
2022-09-25T02:24:27.447Z,15.03
2022-09-25T02:26:54.203Z,13.98
2022-09-25T02:29:21.430Z,14.74
2022-09-25T02:31:59.731Z,14.85
2022-09-25T02:34:29.167Z,13.65
2022-09-25T02:36:58.535Z,13.72
2022-09-25T02:39:25.459Z,14.79
2022-09-25T02:42:27.491Z,14.12
2022-09-25T02:45:12.318Z,14.58
2022-09-25T02:48:13.199Z,14.53
2022-09-25T02:51:06.032Z,14.48
2022-09-25T02:53:32.660Z,14.33
2022-09-25T02:56:13.212Z,13.49
2022-09-25T02:58:41.622Z,14.25
2022-09-25T03:01:10.784Z,14.03
2022-09-25T03:03:38.813Z,13.85
2022-09-25T03:06:06.871Z,14.18
2022-09-25T03:08:39.509Z,14.12
2022-09-25T03:11:19.769Z,14.08
2022-09-25T03:13:46.491Z,14.03
2022-09-25T03:16:36.430Z,13.97
2022-09-25T03:19:03.710Z,13.99
2022-09-25T03:21:33.028Z,13.99
2022-09-25T03:24:01.173Z,13.05
2022-09-25T03:26:30.507Z,13.38
2022-09-25T03:28:58.437Z,13.37
2022-09-25T03:31:25.177Z,12.90
2022-09-25T03:33:52.236Z,13.51
2022-09-25T03:36:23.118Z,13.96
2022-09-25T03:38:52.546Z,13.70
2022-09-25T03:41:21.322Z,14.00
2022-09-25T03:43:51.734Z,13.33
2022-09-25T03:46:20.730Z,13.93
2022-09-25T03:48:49.790Z,13.93
2022-09-25T03:51:16.489Z,13.70
2022-09-25T03:53:43.217Z,13.80
2022-09-25T03:56:15.634Z,14.09
2022-09-25T03:58:44.843Z,14.11
2022-09-25T04:01:11.886Z,13.42
2022-09-25T04:03:39.565Z,13.08
2022-09-25T04:06:07.873Z,13.81
2022-09-25T04:08:37.562Z,14.28
2022-09-25T04:11:04.846Z,14.28
2022-09-25T04:13:36.445Z,14.34
2022-09-25T04:16:09.632Z,14.45
2022-09-25T04:18:38.743Z,12.81
2022-09-25T04:21:12.124Z,14.48
2022-09-25T04:23:42.281Z,14.54
2022-09-25T04:26:14.325Z,14.43
2022-09-25T04:28:45.515Z,14.01
2022-09-25T04:31:12.224Z,13.42
2022-09-25T04:33:50.482Z,14.59
2022-09-25T04:36:20.196Z,14.61
2022-09-25T04:38:48.477Z,13.96
2022-09-25T04:41:20.157Z,13.62
2022-09-25T04:43:47.465Z,13.86
2022-09-25T04:46:21.080Z,14.75
2022-09-25T04:48:49.160Z,14.68
2022-09-25T04:51:18.299Z,14.79
2022-09-25T04:53:47.331Z,13.51
2022-09-25T04:56:17.086Z,14.24
2022-09-25T04:58:48.542Z,13.90
2022-09-25T05:01:19.799Z,14.70
2022-09-25T05:03:53.691Z,13.85
2022-09-25T05:06:23.406Z,13.93
2022-09-25T05:08:50.645Z,14.75
2022-09-25T05:11:19.765Z,13.84
2022-09-25T05:13:50.252Z,14.15
2022-09-25T05:16:19.304Z,14.67
2022-09-25T05:18:46.381Z,14.15
2022-09-25T05:21:13.094Z,14.58
2022-09-25T05:23:40.122Z,14.45
2022-09-25T05:26:07.304Z,14.10
2022-09-25T05:28:34.493Z,14.67
2022-09-25T05:31:08.956Z,14.78
2022-09-25T05:33:38.539Z,14.89
2022-09-25T05:36:07.847Z,14.99
2022-09-25T05:38:34.789Z,15.04
2022-09-25T05:41:08.951Z,14.92
2022-09-25T05:43:42.961Z,15.13
2022-09-25T05:46:11.023Z,14.49
2022-09-25T05:48:40.575Z,14.68
2022-09-25T05:51:07.464Z,14.24
2022-09-25T05:53:34.703Z,15.07
2022-09-25T05:56:05.645Z,15.28
2022-09-25T05:58:38.799Z,14.47
2022-09-25T06:01:06.620Z,15.21
2022-09-25T06:03:36.222Z,15.16
2022-09-25T06:06:02.905Z,15.46
2022-09-25T06:08:32.835Z,15.49
2022-09-25T06:11:02.398Z,12.92
2022-09-25T06:13:31.991Z,14.88
2022-09-25T06:15:59.053Z,15.17
2022-09-25T06:18:26.357Z,15.44
2022-09-25T06:20:59.941Z,14.82
2022-09-25T06:23:29.361Z,15.67
2022-09-25T06:26:02.885Z,15.70
2022-09-25T06:28:30.099Z,15.56
2022-09-25T06:31:00.175Z,14.75
2022-09-25T06:33:26.892Z,14.93
2022-09-25T06:35:53.567Z,15.22
2022-09-25T06:38:22.744Z,15.76
2022-09-25T06:40:56.085Z,14.57
2022-09-25T06:43:26.440Z,14.89
2022-09-25T06:45:55.823Z,15.21
2022-09-25T06:48:23.046Z,15.92
2022-09-25T06:50:56.612Z,15.73
2022-09-25T06:53:24.597Z,15.04
2022-09-25T06:55:52.320Z,16.09
2022-09-25T06:58:20.939Z,15.50
2022-09-25T07:00:48.604Z,16.11
2022-09-25T07:03:33.818Z,15.67
2022-09-25T07:06:08.777Z,16.43
2022-09-25T07:08:40.220Z,15.62
2022-09-25T07:11:07.036Z,14.45
2022-09-25T07:13:38.309Z,15.84
2022-09-25T07:16:11.657Z,16.55
2022-09-25T07:18:41.282Z,16.63
2022-09-25T07:21:19.153Z,16.74
2022-09-25T07:23:52.083Z,16.15
2022-09-25T07:26:22.599Z,16.84
2022-09-25T07:28:59.379Z,17.06
2022-09-25T07:31:33.811Z,17.17
2022-09-25T07:34:05.887Z,17.12
2022-09-25T07:36:35.493Z,15.90
2022-09-25T07:39:02.134Z,17.29
2022-09-25T07:41:34.332Z,16.85
2022-09-25T07:44:18.069Z,16.03
2022-09-25T07:46:47.830Z,16.87
2022-09-25T07:49:14.583Z,17.53
2022-09-25T07:51:41.355Z,16.55
2022-09-25T07:54:12.856Z,16.87
2022-09-25T07:56:39.936Z,18.18
2022-09-25T07:59:06.697Z,17.81
2022-09-25T08:01:40.976Z,17.24
2022-09-25T08:04:10.329Z,17.13
2022-09-25T08:06:39.313Z,17.47
2022-09-25T08:09:10.317Z,17.21
2022-09-25T08:11:37.558Z,18.09
2022-09-25T08:14:04.320Z,18.06
2022-09-25T08:16:31.017Z,17.46
2022-09-25T08:19:00.024Z,16.28
2022-09-25T08:21:26.683Z,17.58
2022-09-25T08:23:54.336Z,17.52
2022-09-25T08:26:25.676Z,17.20
2022-09-25T08:28:54.576Z,17.61
2022-09-25T08:31:26.399Z,17.28
2022-09-25T08:33:54.415Z,16.78
2022-09-25T08:36:24.107Z,17.91
2022-09-25T08:38:56.420Z,17.98
2022-09-25T08:41:26.294Z,17.21
2022-09-25T08:44:18.203Z,18.15
2022-09-25T08:47:29.535Z,18.31
2022-09-25T08:50:11.132Z,17.66
2022-09-25T08:52:42.293Z,18.14
2022-09-25T08:55:49.861Z,17.95
2022-09-25T08:58:35.120Z,16.68
2022-09-25T09:01:04.936Z,16.93
2022-09-25T09:03:44.422Z,17.42
2022-09-25T09:06:16.345Z,16.93
2022-09-25T09:08:46.146Z,17.11
2022-09-25T09:11:18.053Z,17.71
2022-09-25T09:14:06.445Z,16.65
2022-09-25T09:16:45.011Z,17.14
2022-09-25T09:19:12.851Z,17.39
2022-09-25T09:21:44.524Z,17.46
2022-09-25T09:24:23.907Z,17.25
2022-09-25T09:27:27.478Z,17.70
2022-09-25T09:30:06.136Z,17.73
2022-09-25T09:32:39.149Z,17.77
2022-09-25T09:35:15.223Z,17.70
2022-09-25T09:37:47.249Z,17.60
2022-09-25T09:40:26.267Z,17.47
2022-09-25T09:43:04.198Z,16.27
2022-09-25T09:45:38.611Z,17.37
2022-09-25T09:48:06.432Z,17.26
2022-09-25T09:50:47.199Z,16.30
2022-09-25T09:53:55.847Z,17.26
2022-09-25T09:56:35.830Z,16.41
2022-09-25T09:59:41.292Z,17.25
2022-09-25T10:02:40.651Z,17.28
2022-09-25T10:05:30.706Z,17.29
2022-09-25T10:07:57.458Z,17.25
2022-09-25T10:10:37.397Z,17.72
2022-09-25T10:13:10.294Z,17.81
2022-09-25T10:15:42.888Z,17.79
2022-09-25T10:18:09.772Z,16.80
2022-09-25T10:20:43.358Z,17.59
2022-09-25T10:23:28.278Z,17.48
2022-09-25T10:26:00.092Z,17.41
2022-09-25T10:28:28.412Z,17.05
2022-09-25T10:30:56.284Z,16.81
2022-09-25T10:33:25.025Z,17.11
2022-09-25T10:35:55.073Z,16.45
2022-09-25T10:38:25.778Z,16.92
2022-09-25T10:41:19.983Z,16.54
2022-09-25T10:43:57.059Z,16.90
2022-09-25T10:46:50.084Z,16.90
2022-09-25T10:49:41.442Z,17.10
2022-09-25T10:52:10.955Z,16.15
2022-09-25T10:54:44.775Z,17.11
2022-09-25T10:57:34.223Z,17.19
2022-09-25T11:00:06.468Z,17.14
2022-09-25T11:02:34.246Z,15.80
2022-09-25T11:05:01.890Z,16.89
2022-09-25T11:07:28.942Z,16.58
2022-09-25T11:10:00.323Z,15.83
2022-09-25T11:12:31.436Z,15.83
2022-09-25T11:15:05.863Z,16.66
2022-09-25T11:17:42.125Z,16.72
2022-09-25T11:20:19.315Z,17.36
2022-09-25T11:22:50.505Z,17.46
2022-09-25T11:25:26.324Z,17.57
2022-09-25T11:28:04.864Z,17.52
2022-09-25T11:30:43.535Z,17.13
2022-09-25T11:33:36.581Z,17.03
2022-09-25T11:36:07.449Z,16.84
2022-09-25T11:38:58.247Z,16.89
2022-09-25T11:41:37.140Z,16.91
2022-09-25T11:44:34.639Z,16.98
2022-09-25T11:47:18.078Z,16.36
2022-09-25T11:49:48.462Z,17.46
2022-09-25T11:52:43.784Z,17.04
2022-09-25T11:55:28.701Z,17.46
2022-09-25T11:58:16.791Z,17.57
2022-09-25T12:00:50.685Z,17.18
2022-09-25T12:03:30.366Z,17.47
2022-09-25T12:06:01.082Z,17.50
2022-09-25T12:08:49.047Z,17.60
2022-09-25T12:11:28.592Z,17.57
2022-09-25T12:14:11.988Z,15.83
2022-09-25T12:16:48.030Z,17.22
2022-09-25T12:19:36.606Z,17.20
2022-09-25T12:22:14.096Z,17.14
2022-09-25T12:24:58.812Z,17.05
2022-09-25T12:27:47.667Z,16.97
2022-09-25T12:30:23.977Z,16.89
2022-09-25T12:32:53.649Z,17.21
2022-09-25T12:35:39.158Z,17.09
2022-09-25T12:38:15.659Z,16.57
2022-09-25T12:41:07.501Z,16.94
2022-09-25T12:43:41.276Z,17.03
2022-09-25T12:46:32.589Z,17.21
2022-09-25T12:49:13.559Z,17.16
2022-09-25T12:51:43.876Z,17.04
2022-09-25T12:54:22.852Z,17.18
2022-09-25T12:57:14.202Z,17.11
2022-09-25T12:59:49.240Z,15.64
2022-09-25T13:03:15.085Z,17.15
2022-09-25T13:05:57.438Z,16.99
2022-09-25T13:08:40.074Z,16.23
2022-09-25T13:11:12.628Z,16.44
2022-09-25T13:13:49.010Z,15.60
2022-09-25T13:16:16.157Z,15.88
2022-09-25T13:19:11.261Z,16.34
2022-09-25T13:21:45.740Z,15.63
2022-09-25T13:24:17.688Z,16.60
2022-09-25T13:26:51.301Z,15.90
2022-09-25T13:29:35.597Z,16.77
2022-09-25T13:32:23.874Z,16.83
2022-09-25T13:35:02.935Z,16.08
2022-09-25T13:37:32.246Z,16.82
2022-09-25T13:40:18.615Z,16.07
2022-09-25T13:42:46.339Z,16.35
2022-09-25T13:45:22.436Z,16.66
2022-09-25T13:47:54.873Z,16.62
2022-09-25T13:50:24.552Z,16.64
2022-09-25T13:53:18.280Z,16.69
2022-09-25T13:55:49.975Z,16.63
2022-09-25T13:58:21.158Z,16.50
2022-09-25T14:00:53.897Z,16.54
2022-09-25T14:03:46.077Z,16.34
2022-09-25T14:06:17.669Z,16.31
2022-09-25T14:08:50.741Z,16.20
2022-09-25T14:11:19.919Z,16.10
2022-09-25T14:13:48.261Z,15.96
2022-09-25T14:16:38.443Z,15.27
2022-09-25T14:19:06.687Z,15.56
2022-09-25T14:21:35.220Z,15.59
2022-09-25T14:24:32.906Z,15.56
2022-09-25T14:27:06.280Z,14.32
2022-09-25T14:29:40.376Z,15.67
2022-09-25T14:32:53.821Z,15.66
2022-09-25T14:35:25.084Z,13.87
2022-09-25T14:38:36.944Z,14.28
2022-09-25T14:41:23.027Z,15.73
2022-09-25T14:43:52.685Z,15.80
2022-09-25T14:46:27.120Z,14.34
2022-09-25T14:48:59.789Z,15.43
2022-09-25T14:51:43.511Z,15.38
2022-09-25T14:54:15.959Z,15.30
2022-09-25T14:56:48.948Z,15.17
2022-09-25T14:59:37.823Z,15.13
2022-09-25T15:02:04.750Z,15.00
2022-09-25T15:04:34.563Z,12.68
2022-09-25T15:07:12.413Z,14.80
2022-09-25T15:09:49.063Z,14.85
2022-09-25T15:12:33.881Z,14.95
2022-09-25T15:15:11.428Z,14.68
2022-09-25T15:17:47.868Z,13.52
2022-09-25T15:20:20.998Z,14.20
2022-09-25T15:22:52.885Z,12.99
2022-09-25T15:25:39.833Z,14.82
2022-09-25T15:28:08.953Z,14.78
2022-09-25T15:30:41.741Z,14.66
2022-09-25T15:34:02.336Z,14.72
2022-09-25T15:36:29.131Z,13.18
2022-09-25T15:39:02.793Z,14.76
2022-09-25T15:41:29.553Z,14.30
2022-09-25T15:44:19.014Z,14.96
2022-09-25T15:46:50.282Z,14.82
2022-09-25T15:49:24.536Z,14.82
2022-09-25T15:52:00.350Z,15.05
2022-09-25T15:54:45.225Z,14.42
2022-09-25T15:57:14.928Z,14.57
2022-09-25T16:00:03.343Z,11.48
2022-09-25T16:02:52.219Z,15.16
2022-09-25T16:05:24.419Z,13.56
2022-09-25T16:07:51.167Z,14.23
2022-09-25T16:10:17.761Z,15.21
2022-09-25T16:12:49.203Z,14.39
2022-09-25T16:15:28.529Z,15.27
2022-09-25T16:18:05.717Z,15.24
2022-09-25T16:20:37.191Z,14.71
2022-09-25T16:23:06.520Z,14.70
2022-09-25T16:25:43.353Z,15.02
2022-09-25T16:28:36.324Z,13.95
2022-09-25T16:31:08.191Z,15.28
2022-09-25T16:33:39.020Z,14.65
2022-09-25T16:36:17.621Z,15.50
2022-09-25T16:39:07.932Z,15.59
2022-09-25T16:41:38.765Z,15.58
2022-09-25T16:44:17.882Z,15.61
2022-09-25T16:46:55.431Z,14.55
2022-09-25T16:49:26.689Z,15.51
2022-09-25T16:51:54.837Z,15.64
2022-09-25T16:54:22.575Z,14.63
2022-09-25T16:56:51.695Z,14.64
2022-09-25T16:59:22.166Z,15.68
2022-09-25T17:02:02.380Z,15.15
2022-09-25T17:04:30.888Z,15.69
2022-09-25T17:06:58.647Z,14.28
2022-09-25T17:09:29.160Z,15.50
2022-09-25T17:12:07.327Z,15.69
2022-09-25T17:14:34.264Z,13.34
2022-09-25T17:17:00.988Z,15.71
2022-09-25T17:19:28.006Z,15.35
2022-09-25T17:21:58.087Z,15.14
2022-09-25T17:24:27.961Z,14.48
2022-09-25T17:26:54.793Z,14.32
2022-09-25T17:29:22.200Z,14.43
2022-09-25T17:31:49.005Z,14.40
2022-09-25T17:34:28.515Z,15.72
2022-09-25T17:36:58.026Z,15.46
2022-09-25T17:39:27.588Z,15.47
2022-09-25T17:41:54.694Z,15.76
2022-09-25T17:44:23.749Z,14.69
2022-09-25T17:46:51.889Z,15.73
2022-09-25T17:49:21.697Z,14.59
2022-09-25T17:51:48.517Z,15.38
2022-09-25T17:54:23.302Z,13.80
2022-09-25T17:56:52.266Z,14.89
2022-09-25T17:59:22.273Z,14.32
2022-09-25T18:01:54.821Z,13.62
2022-09-25T18:04:24.000Z,14.97
2022-09-25T18:06:53.187Z,13.53
2022-09-25T18:09:20.122Z,15.07
2022-09-25T18:11:49.162Z,15.25
2022-09-25T18:14:18.290Z,14.81
2022-09-25T18:16:45.308Z,14.27
2022-09-25T18:19:38.060Z,15.45
2022-09-25T18:22:21.832Z,15.61
2022-09-25T18:24:56.267Z,15.53
2022-09-25T18:27:31.005Z,15.56
2022-09-25T18:29:59.946Z,15.23
2022-09-25T18:32:31.389Z,15.03
2022-09-25T18:35:03.011Z,14.53
2022-09-25T18:37:29.815Z,15.59
2022-09-25T18:39:58.801Z,15.28
2022-09-25T18:42:25.484Z,14.78
2022-09-25T18:44:53.362Z,14.32
2022-09-25T18:47:22.202Z,15.54
2022-09-25T18:49:51.678Z,15.53
2022-09-25T18:52:23.391Z,15.26
2022-09-25T18:54:49.944Z,15.46
2022-09-25T18:57:19.203Z,15.51
2022-09-25T18:59:50.395Z,15.52
2022-09-25T19:02:22.519Z,15.54
2022-09-25T19:04:51.316Z,14.88
2022-09-25T19:07:19.663Z,14.77
2022-09-25T19:09:46.493Z,14.22
2022-09-25T19:12:17.697Z,14.03
2022-09-25T19:14:45.477Z,15.70
2022-09-25T19:17:15.903Z,14.57
2022-09-25T19:19:46.339Z,14.20
2022-09-25T19:22:19.928Z,13.91
2022-09-25T19:24:47.808Z,14.19
2022-09-25T19:27:18.962Z,15.74
2022-09-25T19:29:46.072Z,15.76
2022-09-25T19:32:15.885Z,14.74
2022-09-25T19:34:42.877Z,14.81
2022-09-25T19:37:12.562Z,14.46
2022-09-25T19:39:58.719Z,15.12
2022-09-25T19:42:37.736Z,14.91
2022-09-25T19:45:04.813Z,14.61
2022-09-25T19:47:32.061Z,14.74
2022-09-25T19:50:03.515Z,14.05
2022-09-25T19:52:30.341Z,14.78
2022-09-25T19:54:59.379Z,14.12
2022-09-25T19:57:31.015Z,15.81
2022-09-25T19:59:57.744Z,15.80
2022-09-25T20:02:24.546Z,13.60
2022-09-25T20:04:54.113Z,15.77
2022-09-25T20:07:23.334Z,14.65
2022-09-25T20:09:50.047Z,14.64
2022-09-25T20:12:16.713Z,15.40
2022-09-25T20:14:45.772Z,15.62
2022-09-25T20:17:17.088Z,14.83
2022-09-25T20:19:49.678Z,14.35
2022-09-25T20:22:16.838Z,14.28
2022-09-25T20:24:48.268Z,14.73
2022-09-25T20:27:15.695Z,14.54
2022-09-25T20:29:44.126Z,15.39
2022-09-25T20:32:13.372Z,13.97
2022-09-25T20:34:39.913Z,15.51
2022-09-25T20:37:06.717Z,14.76
2022-09-25T20:39:35.621Z,14.47
2022-09-25T20:42:02.692Z,14.05
2022-09-25T20:44:31.547Z,14.96
2022-09-25T20:47:00.621Z,14.38
2022-09-25T20:49:31.029Z,14.91
2022-09-25T20:51:57.775Z,15.67
2022-09-25T20:54:27.365Z,14.64
2022-09-25T20:56:56.753Z,15.63
2022-09-25T20:59:23.649Z,15.29
2022-09-25T21:01:54.153Z,13.96
2022-09-25T21:04:20.891Z,15.47
2022-09-25T21:06:47.624Z,13.93
2022-09-25T21:09:25.496Z,14.43
2022-09-25T21:11:53.832Z,14.69
2022-09-25T21:14:26.106Z,15.59
2022-09-25T21:16:56.373Z,13.63
2022-09-25T21:19:23.967Z,14.35
2022-09-25T21:21:51.111Z,15.42
2022-09-25T21:24:19.598Z,14.10
2022-09-25T21:26:47.260Z,14.90
2022-09-25T21:29:20.064Z,14.83
2022-09-25T21:31:50.847Z,14.75
2022-09-25T21:34:21.046Z,15.53
2022-09-25T21:36:50.246Z,15.01
2022-09-25T21:39:21.173Z,15.33
2022-09-25T21:41:50.938Z,15.88
2022-09-25T21:44:20.530Z,15.87
2022-09-25T21:46:47.232Z,15.05
2022-09-25T21:49:20.766Z,15.87
2022-09-25T21:51:48.281Z,14.66
2022-09-25T21:54:17.649Z,15.90
2022-09-25T21:56:49.139Z,15.88
2022-09-25T21:59:16.429Z,14.88
2022-09-25T22:01:43.281Z,15.79
2022-09-25T22:04:12.351Z,15.79
2022-09-25T22:06:41.472Z,14.90
2022-09-25T22:09:17.275Z,15.80
2022-09-25T22:11:47.664Z,15.00
2022-09-25T22:14:16.565Z,15.85
2022-09-25T22:16:48.823Z,15.86
2022-09-25T22:19:20.080Z,15.83
2022-09-25T22:21:48.352Z,15.83
2022-09-25T22:24:18.266Z,14.47
2022-09-25T22:26:47.382Z,15.57
2022-09-25T22:29:17.122Z,14.78
2022-09-25T22:31:44.333Z,10.83
2022-09-25T22:34:22.189Z,15.65
2022-09-25T22:36:57.878Z,15.93
2022-09-25T22:39:26.211Z,15.19
2022-09-25T22:41:56.333Z,15.22
2022-09-25T22:44:26.046Z,15.96
2022-09-25T22:46:52.782Z,15.41
2022-09-25T22:49:19.517Z,15.60
2022-09-25T22:51:48.865Z,14.86
2022-09-25T22:54:20.398Z,15.86
2022-09-25T22:56:47.129Z,15.30
2022-09-25T22:59:18.441Z,15.04
2022-09-25T23:01:49.912Z,14.36
2022-09-25T23:04:19.654Z,15.75
2022-09-25T23:06:46.844Z,15.72
2022-09-25T23:09:18.570Z,15.65
2022-09-25T23:11:45.867Z,15.64
2022-09-25T23:14:17.074Z,14.44
2022-09-25T23:16:45.052Z,13.94
2022-09-25T23:19:14.937Z,15.21
2022-09-25T23:21:42.124Z,12.75
2022-09-25T23:24:14.933Z,14.10
2022-09-25T23:26:41.875Z,14.21
2022-09-25T23:29:17.497Z,15.48
2022-09-25T23:31:45.844Z,13.98
2022-09-25T23:34:15.226Z,14.40
2022-09-25T23:36:46.436Z,13.97
2022-09-25T23:39:18.639Z,14.27
2022-09-25T23:41:45.713Z,15.54
2022-09-25T23:44:12.404Z,14.81
2022-09-25T23:46:44.087Z,15.53
2022-09-25T23:49:14.174Z,14.56
2022-09-25T23:51:43.532Z,15.51
2022-09-25T23:54:10.512Z,13.64
2022-09-25T23:56:41.085Z,13.10
2022-09-25T23:59:11.237Z,15.23
